Time;durP1;ratioP1;P1;durP2;ratioP2;P2;SDS_P1;SDS_P2;PMS_P1;PMS_P2;Temp;Humidity;BMP_temperature;BMP_pressure;BME280_temperature;BME280_humidity;BME280_pressure;Samples;Min_cycle;Max_cycle;Signal;HPM_P1;HPM_P2
2023/06/08 00:00:57;;;;;;;17.13;15.32;;;18.50;99.90;;;;;;4969453;28;20065;-72
2023/06/08 00:03:26;;;;;;;15.27;13.60;;;18.40;99.90;;;;;;4986208;28;20049;-72
2023/06/08 00:05:57;;;;;;;14.32;12.73;;;18.40;99.90;;;;;;4975368;28;20468;-72
2023/06/08 00:08:25;;;;;;;13.07;11.77;;;18.50;99.90;;;;;;4995859;28;20073;-70
2023/06/08 00:10:53;;;;;;;14.80;12.85;;;18.50;99.90;;;;;;5010547;28;20103;-70
2023/06/08 00:13:21;;;;;;;15.20;12.40;;;18.50;99.90;;;;;;5002053;28;20417;-72
2023/06/08 00:15:49;;;;;;;19.67;17.27;;;18.40;99.90;;;;;;5011051;28;20468;-72
2023/06/08 00:18:17;;;;;;;13.88;12.02;;;18.50;99.90;;;;;;4976883;28;20041;-72
2023/06/08 00:20:46;;;;;;;15.20;12.60;;;18.40;99.90;;;;;;5009840;28;20270;-72
2023/06/08 00:23:15;;;;;;;12.30;11.07;;;18.40;99.90;;;;;;4976349;28;20046;-72
2023/06/08 00:25:42;;;;;;;14.05;11.45;;;18.30;99.90;;;;;;4993546;28;20064;-72
2023/06/08 00:28:10;;;;;;;13.05;11.30;;;18.30;99.90;;;;;;4992942;28;20115;-72
2023/06/08 00:30:38;;;;;;;14.02;12.63;;;18.20;99.90;;;;;;4993384;28;20477;-72
2023/06/08 00:33:07;;;;;;;12.73;11.52;;;18.20;99.90;;;;;;4993052;28;20045;-72
2023/06/08 00:35:37;;;;;;;21.63;16.27;;;18.20;99.90;;;;;;5010550;28;20539;-73
2023/06/08 00:38:05;;;;;;;17.23;15.43;;;18.10;99.90;;;;;;5008811;28;20050;-73
2023/06/08 00:40:33;;;;;;;15.52;13.63;;;18.10;99.90;;;;;;4978833;28;20579;-72
2023/06/08 00:43:02;;;;;;;13.85;11.90;;;18.10;99.90;;;;;;4979014;28;20521;-71
2023/06/08 00:45:30;;;;;;;15.60;13.15;;;18.00;99.90;;;;;;5010150;28;20064;-71
2023/06/08 00:47:58;;;;;;;20.88;16.42;;;18.10;99.90;;;;;;5009885;28;20045;-71
2023/06/08 00:50:28;;;;;;;14.20;12.45;;;18.00;99.90;;;;;;4979566;28;20125;-71
2023/06/08 00:52:56;;;;;;;13.50;11.63;;;18.00;99.90;;;;;;5012462;28;20054;-71
2023/06/08 00:55:25;;;;;;;11.90;10.70;;;18.00;99.90;;;;;;4967072;28;20592;-70
2023/06/08 00:57:52;;;;;;;15.25;12.10;;;18.10;99.90;;;;;;4978499;28;20125;-71
2023/06/08 01:00:21;;;;;;;14.40;11.43;;;18.00;99.90;;;;;;4995055;28;20073;-72
2023/06/08 01:02:49;;;;;;;12.02;10.77;;;18.00;99.90;;;;;;4994729;28;20493;-70
2023/06/08 01:05:18;;;;;;;12.38;10.65;;;18.00;99.90;;;;;;4978441;28;20044;-71
2023/06/08 01:08:32;;;;;;;11.40;10.20;;;18.00;99.90;;;;;;4995795;28;20057;-70
2023/06/08 01:11:11;;;;;;;10.98;9.88;;;17.90;99.90;;;;;;4960872;28;20426;-71
2023/06/08 01:13:57;;;;;;;11.32;10.13;;;17.90;99.90;;;;;;4965333;28;20458;-71
2023/06/08 01:16:31;;;;;;;14.43;10.68;;;18.00;99.90;;;;;;4956502;28;20569;-71
2023/06/08 01:19:05;;;;;;;11.88;10.68;;;17.90;99.90;;;;;;4972741;28;20214;-71
2023/06/08 01:22:00;;;;;;;15.82;13.13;;;17.90;99.90;;;;;;4972345;28;20043;-71
2023/06/08 01:24:35;;;;;;;14.43;12.93;;;17.90;99.90;;;;;;4956088;28;20430;-71
2023/06/08 01:27:09;;;;;;;18.70;16.58;;;17.80;99.90;;;;;;4947189;28;20051;-71
2023/06/08 01:29:41;;;;;;;14.98;12.13;;;17.80;99.90;;;;;;4947857;28;20605;-71
2023/06/08 01:32:09;;;;;;;13.93;12.50;;;17.80;99.90;;;;;;4972068;28;20081;-71
2023/06/08 01:34:37;;;;;;;13.18;10.18;;;17.80;99.90;;;;;;4971665;28;20097;-71
2023/06/08 01:37:15;;;;;;;12.55;11.25;;;17.70;99.90;;;;;;4956451;28;20058;-71
2023/06/08 01:39:49;;;;;;;13.55;10.88;;;17.70;99.90;;;;;;4957000;28;20038;-71
2023/06/08 01:42:19;;;;;;;11.77;10.57;;;17.70;99.90;;;;;;4973035;28;20072;-71
2023/06/08 01:45:20;;;;;;;11.70;10.35;;;17.70;99.90;;;;;;4941219;28;20046;-71
2023/06/08 01:47:52;;;;;;;11.40;10.30;;;17.70;99.90;;;;;;4988681;28;20075;-71
2023/06/08 01:50:21;;;;;;;12.70;10.18;;;17.70;99.90;;;;;;4969754;28;20416;-71
2023/06/08 01:52:50;;;;;;;12.68;10.20;;;17.70;99.90;;;;;;5006236;28;20045;-71
2023/06/08 01:55:22;;;;;;;14.48;10.02;;;17.70;99.90;;;;;;5018851;28;20425;-71
2023/06/08 01:57:50;;;;;;;11.40;9.98;;;17.70;99.90;;;;;;4995163;28;20030;-71
2023/06/08 02:00:18;;;;;;;11.57;10.27;;;17.70;99.90;;;;;;4994824;28;20410;-71
2023/06/08 02:02:47;;;;;;;13.02;10.20;;;17.70;99.90;;;;;;4998871;28;20042;-71
2023/06/08 02:05:15;;;;;;;11.45;10.32;;;17.70;99.90;;;;;;4999411;28;20085;-71
2023/06/08 02:07:43;;;;;;;11.05;9.95;;;17.70;99.90;;;;;;4978605;28;20050;-71
2023/06/08 02:10:12;;;;;;;12.65;11.35;;;17.80;99.90;;;;;;5013718;28;20277;-71
2023/06/08 02:12:40;;;;;;;13.65;11.75;;;17.80;99.90;;;;;;4978110;28;20137;-71
2023/06/08 02:15:08;;;;;;;13.45;11.70;;;17.80;99.90;;;;;;5003921;28;20104;-71
2023/06/08 02:17:36;;;;;;;12.50;11.07;;;17.80;99.90;;;;;;5010401;28;20552;-71
2023/06/08 02:20:08;;;;;;;10.98;9.85;;;17.80;99.90;;;;;;5012132;28;20501;-72
2023/06/08 02:22:38;;;;;;;12.35;10.77;;;17.90;99.90;;;;;;5004035;28;20038;-71
2023/06/08 02:25:07;;;;;;;10.88;9.77;;;17.90;99.90;;;;;;5005022;28;20033;-71
2023/06/08 02:27:36;;;;;;;11.20;9.80;;;17.80;99.90;;;;;;5003578;28;20149;-71
2023/06/08 02:30:09;;;;;;;13.45;11.63;;;17.90;99.90;;;;;;4996885;28;20421;-72
2023/06/08 02:32:41;;;;;;;12.15;10.85;;;17.80;99.90;;;;;;4993450;28;20049;-71
2023/06/08 02:35:10;;;;;;;11.70;10.52;;;17.80;99.90;;;;;;4978412;28;20053;-71
2023/06/08 02:37:42;;;;;;;13.85;11.48;;;17.80;99.90;;;;;;4977900;28;20038;-71
2023/06/08 02:40:11;;;;;;;11.18;10.07;;;17.80;99.90;;;;;;4994707;28;20034;-71
2023/06/08 02:42:40;;;;;;;12.05;9.77;;;17.80;99.90;;;;;;4994418;28;20057;-71
2023/06/08 02:45:10;;;;;;;11.50;10.20;;;17.80;99.90;;;;;;4994850;28;20516;-71
2023/06/08 02:47:39;;;;;;;13.05;10.23;;;17.80;99.90;;;;;;4983150;28;20068;-71
2023/06/08 02:50:07;;;;;;;11.05;9.90;;;17.80;99.90;;;;;;5000360;28;20116;-71
2023/06/08 02:52:35;;;;;;;13.75;10.88;;;17.80;99.90;;;;;;4991024;28;20046;-70
2023/06/08 02:55:04;;;;;;;11.68;10.05;;;17.80;99.90;;;;;;4975450;28;20100;-71
2023/06/08 02:57:32;;;;;;;12.57;10.38;;;17.80;99.90;;;;;;4964421;28;20041;-70
2023/06/08 03:00:07;;;;;;;11.25;9.95;;;17.80;99.90;;;;;;4993802;28;20270;-70
2023/06/08 03:02:51;;;;;;;12.05;10.27;;;17.80;99.90;;;;;;4993441;28;20529;-70
2023/06/08 03:05:21;;;;;;;12.48;10.27;;;17.90;99.90;;;;;;5006838;28;20038;-70
2023/06/08 03:07:48;;;;;;;11.50;10.32;;;17.90;99.90;;;;;;4976862;28;20046;-69
2023/06/08 03:10:16;;;;;;;12.00;10.43;;;17.90;99.90;;;;;;5007702;28;20053;-70
2023/06/08 03:12:43;;;;;;;10.85;9.82;;;17.80;99.90;;;;;;4985267;28;20081;-71
2023/06/08 03:15:11;;;;;;;12.52;10.20;;;17.80;99.90;;;;;;5000548;28;20046;-70
2023/06/08 03:17:39;;;;;;;13.40;10.57;;;17.80;99.90;;;;;;5000411;28;20117;-71
2023/06/08 03:20:08;;;;;;;10.73;9.43;;;17.80;99.90;;;;;;4976811;28;20050;-71
2023/06/08 03:22:41;;;;;;;12.38;11.07;;;17.80;99.90;;;;;;4986164;28;20046;-71
2023/06/08 03:25:11;;;;;;;13.35;11.25;;;17.70;99.90;;;;;;4977085;28;20596;-70
2023/06/08 03:27:38;;;;;;;12.90;10.73;;;17.80;99.90;;;;;;4985111;28;20085;-70
2023/06/08 03:30:11;;;;;;;11.18;9.85;;;17.80;99.90;;;;;;4977828;28;20049;-70
2023/06/08 03:32:49;;;;;;;10.45;9.35;;;17.80;99.90;;;;;;4993635;28;20041;-71
2023/06/08 03:35:21;;;;;;;10.30;9.20;;;17.80;99.90;;;;;;4984036;28;20532;-70
2023/06/08 03:38:02;;;;;;;13.50;9.90;;;17.80;99.90;;;;;;4999680;28;20052;-71
2023/06/08 03:40:30;;;;;;;10.90;9.80;;;17.80;99.90;;;;;;4993166;28;20438;-71
2023/06/08 03:43:00;;;;;;;11.82;10.43;;;17.80;99.90;;;;;;5000209;28;20041;-70
2023/06/08 03:45:29;;;;;;;10.07;9.07;;;17.80;99.90;;;;;;4996157;28;20041;-71
2023/06/08 03:47:57;;;;;;;10.75;9.65;;;17.80;99.90;;;;;;4993014;28;20038;-71
2023/06/08 03:50:25;;;;;;;10.43;9.32;;;17.90;99.90;;;;;;4977664;28;20513;-71
2023/06/08 03:52:53;;;;;;;11.25;10.02;;;17.90;99.90;;;;;;5002359;28;20568;-71
2023/06/08 03:55:21;;;;;;;10.15;9.25;;;17.90;99.90;;;;;;5010162;28;20053;-70
2023/06/08 03:57:50;;;;;;;11.27;9.15;;;18.00;99.90;;;;;;4990996;28;20038;-71
2023/06/08 04:00:20;;;;;;;11.50;10.30;;;18.00;99.90;;;;;;4976148;28;20421;-71
2023/06/08 04:02:51;;;;;;;12.85;9.57;;;18.10;99.90;;;;;;5009217;28;20029;-70
2023/06/08 04:05:23;;;;;;;16.02;13.30;;;18.10;99.90;;;;;;5001236;28;20111;-71
2023/06/08 04:07:51;;;;;;;13.05;11.52;;;18.20;99.90;;;;;;4995436;28;20056;-71
2023/06/08 04:10:19;;;;;;;12.60;11.30;;;18.20;99.90;;;;;;4982234;28;20461;-70
2023/06/08 04:12:47;;;;;;;12.40;10.20;;;18.40;99.90;;;;;;4992396;28;20046;-71
2023/06/08 04:15:15;;;;;;;11.25;10.02;;;18.40;99.90;;;;;;4991265;28;20397;-71
2023/06/08 04:17:46;;;;;;;12.30;11.00;;;18.50;99.90;;;;;;4993976;28;20474;-71
2023/06/08 04:20:17;;;;;;;14.15;10.80;;;18.50;99.90;;;;;;4995032;28;20714;-71
2023/06/08 04:22:45;;;;;;;10.98;9.90;;;18.60;99.90;;;;;;4991909;28;20048;-71
2023/06/08 04:25:15;;;;;;;10.98;9.20;;;18.50;99.90;;;;;;4991292;28;20567;-70
2023/06/08 04:27:44;;;;;;;10.88;9.70;;;18.60;99.90;;;;;;5006960;28;20115;-71
2023/06/08 04:30:12;;;;;;;13.52;10.02;;;18.70;99.90;;;;;;4997508;28;20537;-71
2023/06/08 04:32:42;;;;;;;12.32;9.30;;;18.70;99.90;;;;;;5017384;28;20088;-71
2023/06/08 04:35:10;;;;;;;11.50;9.43;;;18.80;99.90;;;;;;4996066;28;20509;-71
2023/06/08 04:37:40;;;;;;;10.07;9.05;;;18.80;99.90;;;;;;5005981;28;20108;-71
2023/06/08 04:40:09;;;;;;;13.48;11.05;;;18.80;99.90;;;;;;4983161;28;20141;-71
2023/06/08 04:42:39;;;;;;;12.40;10.80;;;18.90;99.90;;;;;;4975807;28;20058;-70
2023/06/08 04:45:08;;;;;;;12.90;11.40;;;19.00;99.90;;;;;;4979880;28;20219;-71
2023/06/08 04:47:40;;;;;;;13.63;11.83;;;19.00;99.90;;;;;;4991189;28;20461;-71
2023/06/08 04:50:08;;;;;;;13.15;10.45;;;19.10;99.90;;;;;;5001111;28;20080;-71
2023/06/08 04:52:40;;;;;;;13.75;9.13;;;19.20;99.90;;;;;;5000502;28;20524;-71
2023/06/08 04:55:12;;;;;;;11.52;9.65;;;19.20;99.90;;;;;;4989572;28;20041;-71
2023/06/08 04:57:41;;;;;;;10.93;9.18;;;19.20;99.90;;;;;;4989693;28;20054;-71
2023/06/08 05:00:10;;;;;;;10.82;9.73;;;19.30;99.90;;;;;;4960067;28;20042;-71
2023/06/08 05:02:38;;;;;;;11.48;9.73;;;19.40;99.90;;;;;;4994583;28;20092;-71
2023/06/08 05:05:07;;;;;;;12.18;9.55;;;19.40;99.90;;;;;;4981013;28;20112;-71
2023/06/08 05:07:34;;;;;;;11.45;10.05;;;19.50;99.90;;;;;;5010789;28;20410;-71
2023/06/08 05:10:03;;;;;;;10.95;9.02;;;19.60;99.90;;;;;;5010355;28;20197;-71
2023/06/08 05:12:31;;;;;;;11.05;9.52;;;19.60;99.90;;;;;;4976075;28;20076;-72
2023/06/08 05:15:00;;;;;;;10.43;9.43;;;19.70;99.90;;;;;;4977318;28;20042;-71
2023/06/08 05:17:28;;;;;;;10.77;9.43;;;19.70;99.90;;;;;;4976315;28;20137;-71
2023/06/08 05:19:55;;;;;;;12.48;9.90;;;19.70;99.90;;;;;;5009608;28;20038;-71
2023/06/08 05:22:24;;;;;;;10.48;9.35;;;19.80;99.90;;;;;;4964793;28;20107;-71
2023/06/08 05:24:51;;;;;;;11.23;9.85;;;19.90;99.90;;;;;;5008324;28;20100;-72
2023/06/08 05:27:20;;;;;;;10.00;9.10;;;19.80;99.90;;;;;;4992456;28;20364;-71
2023/06/08 05:29:47;;;;;;;9.85;8.85;;;19.90;99.90;;;;;;4993164;28;20046;-72
2023/06/08 05:32:15;;;;;;;11.18;9.38;;;19.90;99.90;;;;;;4992665;28;20096;-71
2023/06/08 05:34:42;;;;;;;12.23;9.55;;;19.90;99.90;;;;;;4979914;28;20103;-71
2023/06/08 05:37:10;;;;;;;10.38;8.63;;;19.90;99.90;;;;;;4997541;28;20076;-71
2023/06/08 05:39:37;;;;;;;11.60;9.00;;;19.90;99.90;;;;;;4979937;28;20052;-71
2023/06/08 05:42:06;;;;;;;14.05;11.23;;;19.90;99.90;;;;;;4994465;28;20060;-72
2023/06/08 05:44:34;;;;;;;11.85;10.57;;;19.90;99.90;;;;;;4994640;28;20034;-72
2023/06/08 05:47:02;;;;;;;11.73;9.50;;;19.90;99.90;;;;;;4994559;28;20049;-72
2023/06/08 05:49:30;;;;;;;11.50;9.60;;;19.90;99.90;;;;;;4978636;28;20128;-71
2023/06/08 05:52:02;;;;;;;9.15;8.25;;;19.80;99.90;;;;;;5000134;28;20048;-71
2023/06/08 05:54:32;;;;;;;12.80;11.43;;;19.80;99.90;;;;;;4978439;28;20049;-71
2023/06/08 05:57:00;;;;;;;11.05;9.95;;;19.80;99.90;;;;;;4994818;28;20092;-71
2023/06/08 05:59:28;;;;;;;10.48;9.48;;;19.80;99.90;;;;;;5012730;28;20121;-71
2023/06/08 06:01:56;;;;;;;11.95;9.70;;;19.80;99.90;;;;;;4995338;28;20046;-71
2023/06/08 06:04:23;;;;;;;11.40;10.20;;;19.80;99.90;;;;;;4989327;28;20046;-71
2023/06/08 06:07:05;;;;;;;13.77;11.77;;;19.80;99.90;;;;;;4995957;28;20100;-70
2023/06/08 06:09:34;;;;;;;10.80;9.70;;;19.90;99.90;;;;;;5010252;28;20114;-71
2023/06/08 06:12:02;;;;;;;13.48;12.02;;;19.90;99.90;;;;;;4992469;28;20126;-71
2023/06/08 06:14:40;;;;;;;11.43;10.23;;;20.00;99.90;;;;;;4992203;28;20042;-70
2023/06/08 06:17:15;;;;;;;10.60;9.57;;;20.10;99.90;;;;;;4992180;28;20130;-69
2023/06/08 06:19:44;;;;;;;10.85;9.10;;;20.20;99.90;;;;;;4995528;28;20038;-69
2023/06/08 06:22:12;;;;;;;10.25;9.18;;;20.30;99.90;;;;;;4978941;28;20050;-69
2023/06/08 06:24:40;;;;;;;10.57;9.30;;;20.60;99.90;;;;;;4995248;28;20058;-69
2023/06/08 06:27:11;;;;;;;11.75;9.88;;;20.70;99.90;;;;;;4988539;28;20050;-70
2023/06/08 06:29:38;;;;;;;11.63;9.48;;;20.80;99.90;;;;;;4995024;28;20116;-70
2023/06/08 06:32:07;;;;;;;11.15;9.25;;;21.00;99.90;;;;;;4995067;28;20049;-71
2023/06/08 06:34:37;;;;;;;10.68;9.63;;;21.10;99.90;;;;;;4994399;28;20050;-68
2023/06/08 06:37:05;;;;;;;9.85;8.82;;;21.20;99.90;;;;;;4977391;28;20133;-69
2023/06/08 06:39:32;;;;;;;10.32;8.88;;;21.30;99.90;;;;;;4994965;28;20046;-68
2023/06/08 06:42:01;;;;;;;12.65;11.23;;;21.40;99.90;;;;;;5000240;28;20470;-68
2023/06/08 06:44:39;;;;;;;10.75;9.27;;;21.40;99.90;;;;;;4993689;28;20046;-68
2023/06/08 06:47:07;;;;;;;11.05;9.95;;;21.60;99.90;;;;;;4992171;28;20042;-69
2023/06/08 06:49:35;;;;;;;10.52;9.45;;;21.70;99.90;;;;;;4994364;28;20104;-70
2023/06/08 06:52:03;;;;;;;9.95;8.88;;;21.90;99.90;;;;;;5018630;28;20054;-70
2023/06/08 06:54:32;;;;;;;11.98;9.02;;;22.00;99.90;;;;;;4974372;28;20406;-69
2023/06/08 06:56:59;;;;;;;11.38;9.10;;;22.10;99.90;;;;;;4978816;28;20072;-71
2023/06/08 06:59:29;;;;;;;12.40;11.20;;;22.30;99.90;;;;;;4993188;28;20062;-72
2023/06/08 07:01:56;;;;;;;11.50;10.30;;;22.40;99.90;;;;;;4984371;28;20050;-72
2023/06/08 07:04:25;;;;;;;15.02;11.82;;;22.50;99.90;;;;;;5003158;28;20076;-73
2023/06/08 07:06:54;;;;;;;10.73;9.65;;;22.50;99.90;;;;;;4997110;28;20080;-72
2023/06/08 07:09:22;;;;;;;14.25;9.02;;;22.60;99.90;;;;;;5011395;28;20052;-73
2023/06/08 07:11:50;;;;;;;10.45;9.45;;;22.80;99.90;;;;;;5022357;28;20099;-73
2023/06/08 07:14:38;;;;;;;9.80;8.90;;;23.00;99.90;;;;;;4963052;28;20048;-72
2023/06/08 07:17:05;;;;;;;12.23;8.50;;;23.00;99.90;;;;;;4997263;28;20092;-72
2023/06/08 07:19:33;;;;;;;11.10;9.18;;;23.30;99.90;;;;;;5015240;28;20115;-73
2023/06/08 07:22:01;;;;;;;11.15;10.00;;;23.40;99.90;;;;;;4974078;28;20077;-72
2023/06/08 07:24:44;;;;;;;13.07;9.40;;;23.40;99.90;;;;;;4960579;28;20053;-72
2023/06/08 07:27:32;;;;;;;12.98;10.20;;;23.40;99.90;;;;;;4961819;28;20042;-73
2023/06/08 07:30:00;;;;;;;10.93;9.82;;;23.30;99.90;;;;;;4966802;28;20129;-72
2023/06/08 07:32:28;;;;;;;10.60;9.60;;;23.30;99.90;;;;;;4993777;28;20116;-73
2023/06/08 07:34:56;;;;;;;10.07;9.15;;;23.40;99.90;;;;;;5001888;28;20525;-72
2023/06/08 07:37:24;;;;;;;11.65;10.40;;;23.50;99.90;;;;;;4998697;28;20050;-72
2023/06/08 07:39:51;;;;;;;11.52;10.13;;;23.60;99.90;;;;;;4997604;28;20649;-73
2023/06/08 07:42:19;;;;;;;10.60;9.57;;;23.60;99.90;;;;;;4994413;28;20041;-73
2023/06/08 07:44:47;;;;;;;11.65;10.13;;;23.50;99.90;;;;;;4987421;28;20077;-74
2023/06/08 07:47:15;;;;;;;10.25;9.23;;;23.60;99.90;;;;;;5002513;28;20042;-72
2023/06/08 07:49:43;;;;;;;12.55;9.40;;;23.70;99.90;;;;;;4986383;28;20489;-72
2023/06/08 07:52:11;;;;;;;12.38;11.13;;;23.60;99.90;;;;;;5018170;28;20050;-72
2023/06/08 07:54:38;;;;;;;10.48;9.23;;;23.70;99.90;;;;;;5012412;28;20502;-72
2023/06/08 07:57:06;;;;;;;10.35;9.13;;;23.90;99.90;;;;;;4994808;28;20053;-72
2023/06/08 07:59:34;;;;;;;9.23;8.32;;;24.10;99.90;;;;;;4999278;28;20042;-73
2023/06/08 08:02:01;;;;;;;9.93;8.57;;;24.10;99.90;;;;;;4983286;28;20048;-73
2023/06/08 08:04:29;;;;;;;9.90;8.90;;;24.10;99.90;;;;;;4977311;28;20057;-73
2023/06/08 08:06:56;;;;;;;9.80;8.85;;;24.20;99.90;;;;;;5001245;28;20370;-72
2023/06/08 08:09:24;;;;;;;9.73;8.68;;;24.40;99.90;;;;;;5001134;28;20049;-72
2023/06/08 08:11:53;;;;;;;9.15;8.30;;;24.40;99.90;;;;;;5015655;28;20045;-71
2023/06/08 08:14:21;;;;;;;9.63;8.73;;;24.50;99.90;;;;;;5017979;28;20058;-71
2023/06/08 08:16:48;;;;;;;10.13;8.80;;;24.60;99.90;;;;;;4988228;28;20581;-72
2023/06/08 08:19:17;;;;;;;10.18;9.15;;;24.60;99.90;;;;;;4994657;28;20037;-72
2023/06/08 08:21:44;;;;;;;11.45;8.80;;;24.70;99.90;;;;;;5001760;28;20042;-72
2023/06/08 08:24:12;;;;;;;10.63;8.77;;;24.70;99.90;;;;;;4998385;28;20513;-72
2023/06/08 08:26:40;;;;;;;9.63;8.73;;;24.70;99.90;;;;;;4984327;28;20058;-72
2023/06/08 08:29:08;;;;;;;10.68;8.60;;;24.60;99.90;;;;;;4979436;28;20057;-72
2023/06/08 08:31:36;;;;;;;9.30;8.13;;;24.40;99.90;;;;;;4977010;28;20149;-72
2023/06/08 08:34:05;;;;;;;10.38;8.98;;;24.40;99.90;;;;;;5024356;28;20513;-72
2023/06/08 08:36:33;;;;;;;12.18;9.15;;;24.40;99.90;;;;;;4991423;28;20047;-72
2023/06/08 08:39:00;;;;;;;10.93;8.50;;;24.50;99.90;;;;;;5001567;28;20100;-72
2023/06/08 08:41:31;;;;;;;9.57;8.55;;;24.80;99.90;;;;;;5002333;28;20065;-72
2023/06/08 08:44:05;;;;;;;9.32;8.38;;;24.90;99.90;;;;;;5004108;28;20049;-72
2023/06/08 08:46:38;;;;;;;9.80;8.77;;;25.30;99.90;;;;;;5007787;28;20116;-72
2023/06/08 08:49:14;;;;;;;9.40;8.60;;;25.40;99.90;;;;;;5009561;28;20044;-72
2023/06/08 08:51:49;;;;;;;9.45;8.40;;;25.70;99.90;;;;;;5000586;28;20123;-72
2023/06/08 08:54:17;;;;;;;9.13;8.15;;;25.70;99.90;;;;;;5008477;28;20056;-72
2023/06/08 08:56:45;;;;;;;9.43;8.48;;;25.90;99.90;;;;;;4993485;28;20049;-73
2023/06/08 08:59:15;;;;;;;9.35;8.30;;;25.90;99.90;;;;;;4999649;28;20462;-73
2023/06/08 09:01:45;;;;;;;8.93;8.13;;;26.00;99.90;;;;;;5012379;28;20143;-73
2023/06/08 09:04:15;;;;;;;8.98;8.18;;;25.90;99.90;;;;;;5010404;28;20038;-73
2023/06/08 09:06:50;;;;;;;9.02;8.23;;;26.00;99.90;;;;;;5000204;28;20053;-73
2023/06/08 09:09:21;;;;;;;9.10;8.18;;;26.20;99.90;;;;;;4991787;28;20046;-73
2023/06/08 09:12:04;;;;;;;9.93;8.63;;;26.40;99.90;;;;;;4979250;28;20046;-73
2023/06/08 09:14:32;;;;;;;9.98;9.05;;;26.50;99.90;;;;;;5003479;28;20108;-73
2023/06/08 09:17:02;;;;;;;10.35;9.07;;;26.50;99.90;;;;;;5022164;28;20497;-73
2023/06/08 09:19:32;;;;;;;10.10;9.15;;;26.70;99.90;;;;;;5002335;28;20034;-74
2023/06/08 09:22:00;;;;;;;9.77;8.80;;;26.80;99.90;;;;;;5004919;28;20437;-73
2023/06/08 09:24:28;;;;;;;11.85;8.13;;;26.90;99.90;;;;;;5002191;28;20463;-73
2023/06/08 09:26:58;;;;;;;9.35;8.43;;;27.00;99.90;;;;;;5023606;28;20436;-73
2023/06/08 09:29:44;;;;;;;10.75;9.07;;;27.10;99.90;;;;;;5010131;28;20129;-73
2023/06/08 09:32:25;;;;;;;10.82;8.57;;;27.40;99.90;;;;;;4990589;28;20046;-72
2023/06/08 09:34:55;;;;;;;12.02;9.20;;;27.70;99.90;;;;;;4979714;28;20425;-73
2023/06/08 09:37:26;;;;;;;9.43;8.48;;;27.90;99.90;;;;;;4985262;28;20053;-73
2023/06/08 09:39:55;;;;;;;9.45;8.55;;;28.00;99.90;;;;;;5007404;28;20069;-72
2023/06/08 09:42:23;;;;;;;9.10;8.20;;;28.30;99.90;;;;;;5006900;28;20250;-72
2023/06/08 09:45:08;;;;;;;9.20;8.25;;;28.70;99.90;;;;;;5004116;28;20042;-74
2023/06/08 09:47:36;;;;;;;8.57;7.68;;;29.00;99.90;;;;;;5004497;28;20034;-73
2023/06/08 09:50:07;;;;;;;9.00;8.10;;;29.30;99.90;;;;;;5018796;28;20045;-73
2023/06/08 09:52:36;;;;;;;8.55;7.63;;;29.50;99.90;;;;;;5004590;28;20042;-73
2023/06/08 09:55:05;;;;;;;8.05;7.30;;;29.80;99.90;;;;;;4979127;28;20045;-73
2023/06/08 09:57:35;;;;;;;8.40;7.50;;;29.90;99.90;;;;;;4979635;28;20046;-73
2023/06/08 10:00:17;;;;;;;8.77;7.80;;;30.00;99.90;;;;;;4994113;28;20141;-73
2023/06/08 10:02:45;;;;;;;8.38;7.63;;;29.80;99.90;;;;;;4987255;28;20056;-73
2023/06/08 10:05:17;;;;;;;7.70;7.00;;;29.40;99.90;;;;;;4986487;28;20042;-73
2023/06/08 10:07:47;;;;;;;8.63;7.85;;;29.00;99.90;;;;;;5020090;28;20100;-72
2023/06/08 10:10:25;;;;;;;7.57;6.88;;;28.70;99.90;;;;;;4986780;28;20156;-73
2023/06/08 10:12:52;;;;;;;7.93;7.22;;;28.40;99.90;;;;;;4993141;28;20050;-73
2023/06/08 10:15:21;;;;;;;8.48;7.68;;;28.40;99.90;;;;;;4998695;28;20104;-72
2023/06/08 10:17:55;;;;;;;9.00;8.10;;;28.60;99.90;;;;;;4995902;28;20058;-72
2023/06/08 10:20:23;;;;;;;8.10;7.30;;;29.00;99.90;;;;;;4998626;28;20041;-73
2023/06/08 10:22:52;;;;;;;8.35;7.65;;;29.50;99.90;;;;;;4984153;28;20125;-72
2023/06/08 10:25:21;;;;;;;8.27;7.47;;;29.40;99.90;;;;;;4996004;28;20038;-72
2023/06/08 10:27:51;;;;;;;9.00;7.30;;;29.00;99.90;;;;;;4978562;28;20539;-71
2023/06/08 10:30:28;;;;;;;8.27;7.57;;;29.60;99.90;;;;;;5019606;28;20038;-72
2023/06/08 10:33:08;;;;;;;7.80;7.10;;;30.20;99.30;;;;;;5004818;28;20041;-72
2023/06/08 10:35:37;;;;;;;10.75;7.25;;;30.70;97.90;;;;;;5002122;28;20464;-72
2023/06/08 10:38:13;;;;;;;8.73;7.60;;;30.80;97.00;;;;;;5000517;28;20408;-71
2023/06/08 10:40:47;;;;;;;8.43;7.72;;;31.00;96.30;;;;;;5001605;28;20104;-72
2023/06/08 10:43:15;;;;;;;8.35;7.55;;;30.60;96.40;;;;;;4977476;28;20081;-72
2023/06/08 10:46:03;;;;;;;10.88;7.13;;;30.80;96.60;;;;;;5014620;28;20033;-72
2023/06/08 10:48:37;;;;;;;8.43;7.53;;;31.40;96.00;;;;;;5001542;28;20469;-72
2023/06/08 10:51:10;;;;;;;8.18;7.38;;;31.60;94.90;;;;;;5000733;28;20045;-72
2023/06/08 10:53:41;;;;;;;8.05;7.35;;;31.60;94.30;;;;;;5011550;28;20045;-72
2023/06/08 10:56:08;;;;;;;7.45;6.75;;;31.00;94.30;;;;;;4999959;28;20038;-73
2023/06/08 10:58:52;;;;;;;7.80;7.00;;;30.70;94.70;;;;;;5001826;28;20124;-73
2023/06/08 11:01:21;;;;;;;7.70;7.07;;;30.90;94.40;;;;;;5002116;28;20033;-73
2023/06/08 11:03:49;;;;;;;7.95;7.25;;;31.20;94.30;;;;;;4984407;28;20132;-73
2023/06/08 11:06:17;;;;;;;8.15;7.45;;;31.20;93.60;;;;;;5013814;28;20049;-73
2023/06/08 11:08:47;;;;;;;7.53;6.93;;;31.20;93.10;;;;;;4992861;28;20536;-73
2023/06/08 11:11:15;;;;;;;9.00;7.37;;;30.70;93.30;;;;;;4998097;28;20038;-73
2023/06/08 11:13:42;;;;;;;8.00;7.30;;;29.80;94.60;;;;;;4998023;28;20591;-73
2023/06/08 11:16:10;;;;;;;8.45;7.65;;;29.90;94.80;;;;;;4978964;28;20058;-73
2023/06/08 11:18:37;;;;;;;9.15;7.57;;;29.50;94.90;;;;;;4984093;28;20523;-73
2023/06/08 11:21:05;;;;;;;8.02;7.28;;;29.70;94.80;;;;;;5009259;28;20041;-73
2023/06/08 11:23:33;;;;;;;7.72;6.93;;;29.70;94.80;;;;;;4992165;28;20157;-73
2023/06/08 11:26:02;;;;;;;8.02;7.32;;;30.10;94.80;;;;;;5011092;28;20372;-73
2023/06/08 11:28:29;;;;;;;9.20;7.82;;;30.90;93.60;;;;;;4991567;28;20144;-72
2023/06/08 11:30:59;;;;;;;9.57;8.57;;;31.30;94.40;;;;;;4976082;28;20041;-73
2023/06/08 11:33:27;;;;;;;8.27;7.47;;;31.00;94.70;;;;;;5002551;28;20054;-72
2023/06/08 11:35:54;;;;;;;10.38;9.35;;;31.10;96.50;;;;;;4961034;28;20060;-72
2023/06/08 11:38:23;;;;;;;8.27;7.47;;;30.20;97.90;;;;;;4996801;28;20060;-71
2023/06/08 11:40:51;;;;;;;10.35;8.85;;;30.10;98.10;;;;;;4994066;28;20513;-72
2023/06/08 11:43:21;;;;;;;8.90;8.10;;;29.40;98.90;;;;;;4997556;28;20092;-73
2023/06/08 11:45:48;;;;;;;9.32;8.52;;;28.40;99.80;;;;;;4996835;28;20071;-73
2023/06/08 11:48:16;;;;;;;10.75;8.30;;;28.20;99.90;;;;;;5004780;28;20042;-73
2023/06/08 11:50:50;;;;;;;9.60;8.60;;;28.10;99.90;;;;;;4980533;28;20512;-72
2023/06/08 11:53:22;;;;;;;10.13;9.13;;;28.20;99.90;;;;;;5030212;28;20536;-72
2023/06/08 11:55:53;;;;;;;10.13;9.13;;;27.70;99.90;;;;;;4993907;28;20535;-72
2023/06/08 11:58:27;;;;;;;9.63;8.80;;;27.40;99.90;;;;;;5000950;28;20073;-71
2023/06/08 12:01:07;;;;;;;9.65;8.63;;;27.40;99.90;;;;;;4993525;28;20112;-72
2023/06/08 12:03:43;;;;;;;9.20;8.40;;;27.30;99.90;;;;;;4993303;28;20045;-72
2023/06/08 12:06:12;;;;;;;10.52;8.95;;;27.30;99.90;;;;;;4978852;28;20042;-72
2023/06/08 12:08:41;;;;;;;10.45;9.35;;;27.20;99.90;;;;;;4977517;28;20046;-72
2023/06/08 12:11:10;;;;;;;10.13;9.13;;;27.40;99.90;;;;;;4985544;28;20092;-73
2023/06/08 12:13:39;;;;;;;10.15;9.15;;;28.20;99.90;;;;;;4988988;28;20057;-72
2023/06/08 12:16:10;;;;;;;11.05;9.05;;;28.10;99.90;;;;;;4984688;28;20101;-72
2023/06/08 12:18:43;;;;;;;9.88;8.88;;;28.20;99.90;;;;;;4993027;28;20096;-72
2023/06/08 12:21:15;;;;;;;10.50;9.50;;;28.00;99.90;;;;;;5021249;28;20050;-71
2023/06/08 12:23:44;;;;;;;13.40;9.65;;;27.10;99.90;;;;;;5015406;28;20048;-70
2023/06/08 12:26:13;;;;;;;12.65;10.23;;;26.90;99.90;;;;;;4992204;28;20058;-71
2023/06/08 12:28:42;;;;;;;12.88;10.30;;;26.90;99.90;;;;;;4992756;28;20038;-70
2023/06/08 12:31:10;;;;;;;12.50;9.73;;;26.40;99.90;;;;;;4973282;28;20081;-69
2023/06/08 12:33:39;;;;;;;13.73;9.27;;;26.40;99.90;;;;;;5023626;28;20045;-69
2023/06/08 12:36:07;;;;;;;9.95;9.05;;;26.40;99.90;;;;;;5010983;28;20168;-69
2023/06/08 12:38:35;;;;;;;12.02;8.75;;;26.70;99.90;;;;;;5000769;28;20076;-69
2023/06/08 12:41:02;;;;;;;12.00;8.90;;;27.80;99.90;;;;;;5010721;28;20042;-70
2023/06/08 12:43:30;;;;;;;9.95;9.00;;;28.40;99.90;;;;;;4994649;28;20045;-71
2023/06/08 12:45:57;;;;;;;10.35;8.98;;;29.20;99.90;;;;;;4990168;28;20045;-71
2023/06/08 12:48:25;;;;;;;8.80;7.90;;;29.90;99.90;;;;;;4997071;28;20067;-71
2023/06/08 12:50:56;;;;;;;10.00;9.00;;;30.30;99.90;;;;;;5022018;28;20038;-71